createdAt,value
2023-06-26T00:02:50.435Z,57.74
2023-06-26T00:08:01.566Z,58.32
2023-06-26T00:13:09.460Z,62.09
2023-06-26T00:18:17.062Z,67.14
2023-06-26T00:23:24.702Z,57.75
2023-06-26T00:28:32.282Z,57.96
2023-06-26T00:33:39.905Z,62.14
2023-06-26T00:38:47.574Z,66.70
2023-06-26T00:43:55.228Z,57.78
2023-06-26T00:49:04.895Z,58.13
2023-06-26T00:54:12.815Z,61.20
2023-06-26T00:59:20.418Z,67.90
2023-06-26T01:04:28.729Z,58.98
2023-06-26T01:09:37.799Z,57.17
2023-06-26T01:14:45.494Z,61.01
2023-06-26T01:19:54.165Z,67.68
2023-06-26T01:25:18.896Z,58.67
2023-06-26T01:30:27.492Z,57.84
2023-06-26T01:35:35.477Z,61.65
2023-06-26T01:40:44.595Z,67.03
2023-06-26T01:45:57.219Z,57.22
2023-06-26T01:51:06.010Z,58.27
2023-06-26T01:56:18.086Z,64.05
2023-06-26T02:01:26.122Z,63.93
2023-06-26T02:06:34.189Z,55.95
2023-06-26T02:11:41.864Z,58.85
2023-06-26T02:16:49.527Z,63.12
2023-06-26T02:21:57.163Z,66.03
2023-06-26T02:27:04.960Z,57.28
2023-06-26T02:32:12.624Z,58.98
2023-06-26T02:37:20.270Z,62.54
2023-06-26T02:42:28.054Z,66.50
2023-06-26T02:47:35.745Z,57.19
2023-06-26T02:52:43.747Z,57.98
2023-06-26T02:57:51.707Z,61.62
2023-06-26T03:02:59.434Z,68.30
2023-06-26T03:08:07.843Z,58.56
2023-06-26T03:13:15.594Z,57.53
2023-06-26T03:18:23.155Z,62.91
2023-06-26T03:23:30.812Z,65.27
2023-06-26T03:28:38.440Z,57.07
2023-06-26T03:33:46.626Z,58.95
2023-06-26T03:38:57.940Z,65.23
2023-06-26T03:44:06.015Z,63.33
2023-06-26T03:49:13.607Z,56.80
2023-06-26T03:54:21.206Z,60.74
2023-06-26T03:59:28.823Z,67.95
2023-06-26T04:04:36.501Z,58.61
2023-06-26T04:09:44.133Z,57.07
2023-06-26T04:14:51.809Z,60.71
2023-06-26T04:19:59.645Z,68.75
2023-06-26T04:25:08.014Z,60.30
2023-06-26T04:30:18.015Z,56.52
2023-06-26T04:35:25.624Z,58.07
2023-06-26T04:40:33.331Z,60.98
2023-06-26T04:45:40.985Z,68.16
2023-06-26T04:50:55.209Z,57.46
2023-06-26T04:56:07.280Z,55.98
2023-06-26T05:01:15.722Z,57.12
2023-06-26T05:06:23.519Z,58.68
2023-06-26T05:11:31.165Z,64.63
2023-06-26T05:16:38.797Z,54.02
2023-06-26T05:21:47.299Z,54.51
2023-06-26T05:26:56.456Z,59.28
2023-06-26T05:32:05.182Z,57.48
2023-06-26T05:37:16.816Z,59.11
2023-06-26T05:42:25.630Z,63.73
2023-06-26T05:47:33.290Z,52.45
2023-06-26T05:52:42.104Z,56.39
2023-06-26T05:57:52.076Z,58.71
2023-06-26T06:03:00.261Z,57.13
2023-06-26T06:08:08.479Z,57.18
2023-06-26T06:13:16.745Z,58.50
2023-06-26T06:18:24.541Z,57.97
2023-06-26T06:23:32.242Z,59.84
2023-06-26T06:28:40.424Z,58.74
2023-06-26T06:33:50.644Z,57.94
2023-06-26T06:38:58.320Z,56.58
2023-06-26T06:44:06.334Z,55.21
2023-06-26T06:49:14.129Z,55.66
2023-06-26T06:54:22.674Z,53.75
2023-06-26T06:59:30.510Z,52.51
2023-06-26T07:04:38.111Z,52.26
2023-06-26T07:09:46.012Z,52.53
2023-06-26T07:14:55.065Z,50.90
2023-06-26T07:20:05.393Z,48.50
2023-06-26T07:25:13.167Z,46.68
2023-06-26T07:30:20.875Z,47.97
2023-06-26T07:35:28.805Z,49.48
2023-06-26T07:40:36.671Z,48.23
2023-06-26T07:45:44.424Z,46.78
2023-06-26T07:50:52.484Z,46.11
2023-06-26T07:56:00.310Z,46.62
2023-06-26T08:01:08.323Z,45.23
2023-06-26T08:06:15.996Z,45.24
2023-06-26T08:11:23.625Z,45.11
2023-06-26T08:16:31.261Z,44.97
2023-06-26T08:21:38.902Z,44.51
2023-06-26T08:26:46.992Z,44.44
2023-06-26T08:31:54.606Z,44.46
2023-06-26T08:37:02.572Z,44.34
2023-06-26T08:42:12.195Z,43.65
2023-06-26T08:47:22.787Z,43.86
2023-06-26T08:52:38.373Z,43.25
2023-06-26T08:57:47.854Z,42.69
2023-06-26T09:02:57.912Z,42.43
2023-06-26T09:08:06.288Z,42.22
2023-06-26T09:13:28.238Z,41.95
2023-06-26T09:18:37.968Z,42.21
2023-06-26T09:23:46.536Z,41.74
2023-06-26T09:28:56.107Z,41.47
2023-06-26T09:34:04.832Z,40.86
2023-06-26T09:39:13.849Z,40.85
2023-06-26T09:44:21.957Z,39.90
2023-06-26T09:49:30.013Z,39.69
2023-06-26T09:54:37.946Z,39.52
2023-06-26T09:59:46.492Z,40.01
2023-06-26T10:04:54.244Z,40.35
2023-06-26T10:10:04.958Z,39.71
2023-06-26T10:15:17.391Z,39.47
2023-06-26T10:20:27.112Z,39.58
2023-06-26T10:25:38.613Z,39.39
2023-06-26T10:30:48.574Z,39.90
2023-06-26T10:36:14.081Z,39.40
2023-06-26T10:41:25.446Z,39.63
2023-06-26T10:46:50.371Z,38.96
2023-06-26T10:52:02.327Z,39.48
2023-06-26T10:57:10.969Z,38.93
2023-06-26T11:02:19.457Z,38.41
2023-06-26T11:07:28.854Z,38.42
2023-06-26T11:12:42.926Z,38.37
2023-06-26T11:17:52.822Z,38.12
2023-06-26T11:23:01.067Z,37.48
2023-06-26T11:28:12.060Z,37.06
2023-06-26T11:33:19.704Z,37.28
2023-06-26T11:38:27.323Z,38.05
2023-06-26T11:43:37.334Z,38.21
2023-06-26T11:48:45.193Z,38.07
2023-06-26T11:53:54.621Z,37.85
2023-06-26T11:59:04.493Z,37.57
2023-06-26T12:04:14.061Z,37.08
2023-06-26T12:09:23.284Z,37.48
2023-06-26T12:14:32.935Z,38.02
2023-06-26T12:19:45.186Z,38.55
2023-06-26T12:24:52.974Z,38.73
2023-06-26T12:30:01.019Z,38.74
2023-06-26T12:35:11.418Z,38.95
2023-06-26T12:40:24.159Z,38.94
2023-06-26T12:45:42.189Z,39.11
2023-06-26T12:50:51.804Z,39.57
2023-06-26T12:55:59.413Z,40.28
2023-06-26T13:01:16.096Z,40.68
2023-06-26T13:06:23.940Z,41.07
2023-06-26T13:11:31.653Z,40.97
2023-06-26T13:16:39.684Z,40.37
2023-06-26T13:21:47.638Z,40.44
2023-06-26T13:26:55.252Z,40.05
2023-06-26T13:32:03.056Z,39.45
2023-06-26T13:37:10.748Z,39.08
2023-06-26T13:42:18.500Z,38.65
2023-06-26T13:47:26.886Z,39.27
2023-06-26T13:52:34.592Z,39.88
2023-06-26T13:57:42.559Z,40.06
2023-06-26T14:02:50.628Z,39.99
2023-06-26T14:07:59.828Z,39.78
2023-06-26T14:13:07.931Z,39.65
2023-06-26T14:18:15.609Z,40.14
2023-06-26T14:23:23.361Z,39.77
2023-06-26T14:28:31.000Z,39.69
2023-06-26T14:33:38.836Z,39.92
2023-06-26T14:38:46.568Z,40.19
2023-06-26T14:43:54.692Z,40.57
2023-06-26T14:49:02.949Z,40.51
2023-06-26T14:54:10.987Z,41.00
2023-06-26T14:59:18.612Z,41.02
2023-06-26T15:04:26.534Z,40.74
2023-06-26T15:09:35.001Z,40.36
2023-06-26T15:14:42.611Z,40.28
2023-06-26T15:19:50.230Z,39.95
2023-06-26T15:24:57.850Z,40.29
2023-06-26T15:30:07.062Z,40.34
2023-06-26T15:35:14.932Z,40.27
2023-06-26T15:40:22.953Z,40.10
2023-06-26T15:45:44.195Z,40.39
2023-06-26T15:51:04.206Z,40.95
2023-06-26T15:56:15.881Z,41.14
2023-06-26T16:01:25.607Z,41.16
2023-06-26T16:06:33.212Z,41.34
2023-06-26T16:11:40.882Z,41.52
2023-06-26T16:16:48.706Z,41.58
2023-06-26T16:21:56.374Z,41.76
2023-06-26T16:27:04.047Z,42.04
2023-06-26T16:32:11.955Z,42.61
2023-06-26T16:37:19.589Z,43.54
2023-06-26T16:42:27.261Z,43.53
2023-06-26T16:47:38.643Z,44.04
2023-06-26T16:52:50.185Z,44.52
2023-06-26T16:57:57.916Z,44.77
2023-06-26T17:03:05.796Z,45.23
2023-06-26T17:08:13.932Z,45.76
2023-06-26T17:13:21.576Z,45.95
2023-06-26T17:18:29.245Z,46.18
2023-06-26T17:23:37.416Z,46.88
2023-06-26T17:28:45.816Z,47.56
2023-06-26T17:33:53.571Z,47.75
2023-06-26T17:39:12.891Z,48.06
2023-06-26T17:44:22.792Z,47.83
2023-06-26T17:49:30.492Z,48.34
2023-06-26T17:54:38.348Z,49.30
2023-06-26T17:59:46.206Z,50.85
2023-06-26T18:04:59.401Z,50.18
2023-06-26T18:10:15.242Z,50.87
2023-06-26T18:15:23.715Z,53.14
2023-06-26T18:20:31.741Z,54.38
2023-06-26T18:25:39.388Z,54.51
2023-06-26T18:30:47.050Z,54.98
2023-06-26T18:35:54.684Z,54.98
2023-06-26T18:41:17.898Z,55.37
2023-06-26T18:46:47.980Z,56.48
2023-06-26T18:51:56.236Z,55.45
2023-06-26T19:10:33.025Z,62.81
2023-06-26T19:15:41.003Z,65.65
2023-06-26T19:20:49.021Z,62.07
2023-06-26T19:25:57.202Z,66.90
2023-06-26T19:31:05.054Z,63.77
2023-06-26T19:36:15.876Z,61.09
2023-06-26T19:45:42.424Z,60.76
2023-06-26T19:50:50.527Z,66.55
2023-06-26T19:55:58.322Z,62.64
2023-06-26T20:01:06.285Z,59.22
2023-06-26T20:06:14.029Z,64.92
2023-06-26T20:11:21.793Z,63.73
2023-06-26T20:16:29.688Z,59.81
2023-06-26T20:21:37.434Z,66.06
2023-06-26T20:26:45.656Z,62.78
2023-06-26T20:31:54.053Z,59.52
2023-06-26T20:37:03.002Z,66.04
2023-06-26T20:42:13.522Z,63.74
2023-06-26T20:47:24.410Z,60.68
2023-06-26T20:52:35.000Z,58.93
2023-06-26T20:57:42.913Z,65.29
2023-06-26T21:02:50.946Z,62.07
2023-06-26T21:07:58.839Z,58.71
2023-06-26T21:13:06.610Z,65.03
2023-06-26T21:18:14.361Z,63.59
2023-06-26T21:23:22.124Z,59.98
2023-06-26T21:28:29.904Z,63.28
2023-06-26T21:33:37.669Z,65.75
2023-06-26T21:38:45.449Z,61.43
2023-06-26T21:43:53.369Z,59.02
2023-06-26T21:49:01.273Z,61.52
2023-06-26T21:54:09.102Z,67.40
2023-06-26T21:59:16.904Z,62.51
2023-06-26T22:04:25.085Z,60.65
2023-06-26T22:09:32.937Z,57.76
2023-06-26T22:14:40.935Z,64.85
2023-06-26T22:19:48.753Z,63.76
2023-06-26T22:24:56.885Z,61.13
2023-06-26T22:30:05.350Z,58.51
2023-06-26T22:35:14.623Z,63.39
2023-06-26T22:40:22.621Z,66.29
2023-06-26T22:45:30.436Z,61.39
2023-06-26T22:50:38.250Z,58.75
2023-06-26T22:55:46.636Z,64.38
2023-06-26T23:00:55.533Z,64.51
2023-06-26T23:06:05.437Z,60.90
2023-06-26T23:11:13.509Z,58.40
2023-06-26T23:16:22.802Z,64.58
2023-06-26T23:21:30.678Z,63.71
2023-06-26T23:26:38.894Z,60.72
2023-06-26T23:31:48.959Z,58.70
2023-06-26T23:36:56.988Z,63.67
2023-06-26T23:42:05.424Z,64.37
2023-06-26T23:47:13.254Z,60.70
2023-06-26T23:52:21.007Z,58.93
2023-06-26T23:57:28.779Z,58.90
